Wolbach, Nebraska
Current Conditions -  °F | °C
As of 2:55 AM on Wednesday 26 Nov 2014 (Local Time) from KBVN Reporting Station
Overcast Overcast  
Wind Chill: 29°   Ceiling: 6500
Heat Index: 38°   Visibility: 10mi
Dew Point: 28°   Wind: 16mph
Humidity: 66%   Direction: 310°NW
Pressure: 29.89"   Gusts: 25mph
Location:  41.4°N, 98.39°W
Report Text: KBVN 260855Z AUTO 31014G22KT 10SM OVC065 03/M02 A2989 RMK AO2 T00331025
Loading
Personal Weather Stations






























Interactive Weather Map New forecast layout! Learn more

10-Day Weather Forecast

Advertisements
Track Severe Weather on mobile